Hasanuddin International Airport
WAAA : now visible

Airfield :











YOU CAN JOIN US ON...

 
LOGIN :

Register | Disclaimer

   EN    FR    IT 

 









Legend :    VFR   Marginal VFR   IFR   Intensive IFR   Very Intensive IFR
Visi :
Ceiling :
>= 8 km
>= 3000ft
5 to 8 km
1000 to 3000 ft
1500m to 5 km
500 to 1000 ft
800 to 1500m
200 to 500 ft
< 800m
< 200 ft
Symbols :   Thunderstorms  Fog  Heavy snow  Heavy precipitations  Wind > 20 kt






- Airport Elevation : 47 ft
- IATA code : UPG


WAAA - Hasanuddin International

CURRENT METAR :
  • 311700Z 12002KT 8000 SCT019 24/23 Q1011 NOSIG

EXPIRED METARs :
  • 311630Z 10003KT 8000 FEW019 24/24 Q1011 NOSIG
  • 311530Z 02001KT 8000 FEW019 24/24 Q1011 NOSIG METAR
  • 311500Z 16001KT 8000 FEW019 25/24 Q1011 NOSIG
  • 311430Z 03001KT 8000 FEW019 25/24 Q1011 NOSIG

TAF TAF WAAA
Valid from the 31 at 18:00 until the 02 at 00:00 UTC


311700Z 3118/0124 12004KT 8000 SCT019
TEMPO 3119/3111 5000 -RA FEW018CB
BECMG 0100/0102 30010KT
WAAF FIR / Asia



MET'MAP, your aeronautical weather chart ! - Copyright ORBIFLY December 2007 - Disclaimer

ORBIFLY MET'MAP TEAM :

Programming & Development : Alexandra Zaïnal
Concept & original design : Baudouin d'Aumeries
Assistance for programming : Marc-Olivier Méhu
Technical & hardware support : Manuel Goepfert

Contact : metmap@orbifly.com




SOURCES & CREDITS :

   NOAA       Earth
Advisory